ADC006 SKAR-SKCC
Flight info
| Callsign | ADC006 |
|---|---|
| Flight time | 1h 22m |
| Altitude | 32000 |
| Route | TOLIM W1 ABL W17 BOG W20 ZIP A301 BUV A567 ESNUT ESNU2A |
| Aircraft | 2200/M-V/N |
Departure
| Time | 2026-04-16 14:19 |
|---|---|
| Airport | El Eden Airport (SKAR) |
Arrival
| Time | 2026-04-16 15:42 |
|---|---|
| Airport | Camilo Daza International Airport (SKCC) |
| Time | Latitude | Longitude | Altitude | Speed | Heading |
|---|---|---|---|---|---|
| 2026-04-16 14:11 | 4.45307 | -75.76730 | 4002 ft | 0 kts | 283° |
| 2026-04-16 14:13 | 4.45304 | -75.76719 | 4002 ft | 2 kts | 290° |
| 2026-04-16 14:13 | 4.45295 | -75.76703 | 4002 ft | 3 kts | 314° |
| 2026-04-16 14:14 | 4.45278 | -75.76692 | 4002 ft | 3 kts | 339° |
| 2026-04-16 14:14 | 4.45258 | -75.76688 | 4001 ft | 3 kts | 358° |
| 2026-04-16 14:14 | 4.45245 | -75.76688 | 4002 ft | 3 kts | 8° |
| 2026-04-16 14:14 | 4.45237 | -75.76690 | 4002 ft | 0 kts | 13° |
| 2026-04-16 14:15 | 4.45292 | -75.76677 | 4002 ft | 18 kts | 14° |
| 2026-04-16 14:15 | 4.45377 | -75.76606 | 4002 ft | 15 kts | 54° |
| 2026-04-16 14:15 | 4.45462 | -75.76546 | 4002 ft | 18 kts | 13° |
| 2026-04-16 14:16 | 4.45588 | -75.76518 | 4002 ft | 19 kts | 14° |
| 2026-04-16 14:16 | 4.45717 | -75.76486 | 4002 ft | 19 kts | 13° |
| 2026-04-16 14:16 | 4.45844 | -75.76456 | 4002 ft | 19 kts | 13° |
| 2026-04-16 14:16 | 4.45971 | -75.76425 | 4002 ft | 19 kts | 13° |
| 2026-04-16 14:17 | 4.46100 | -75.76400 | 4002 ft | 19 kts | 3° |
| 2026-04-16 14:17 | 4.46192 | -75.76398 | 4002 ft | 3 kts | 66° |
| 2026-04-16 14:17 | 4.46161 | -75.76381 | 4002 ft | 6 kts | 196° |
| 2026-04-16 14:17 | 4.46158 | -75.76381 | 4002 ft | 0 kts | 196° |
| 2026-04-16 14:18 | 4.46085 | -75.76400 | 4002 ft | 43 kts | 194° |
| 2026-04-16 14:19 | 4.45497 | -75.76541 | 4002 ft | 126 kts | 193° |
| 2026-04-16 14:19 | 4.44435 | -75.76796 | 4050 ft | 180 kts | 193° |
| 2026-04-16 14:19 | 4.43219 | -75.77097 | 4715 ft | 185 kts | 195° |
| 2026-04-16 14:19 | 4.41809 | -75.77292 | 5158 ft | 223 kts | 179° |
| 2026-04-16 14:20 | 4.40288 | -75.76760 | 5711 ft | 244 kts | 150° |
| 2026-04-16 14:20 | 4.39079 | -75.75512 | 6345 ft | 255 kts | 122° |
| 2026-04-16 14:20 | 4.38508 | -75.73827 | 6946 ft | 262 kts | 97° |
| 2026-04-16 14:20 | 4.38623 | -75.72000 | 7575 ft | 267 kts | 80° |
| 2026-04-16 14:21 | 4.39041 | -75.70180 | 8183 ft | 269 kts | 75° |
| 2026-04-16 14:21 | 4.39529 | -75.68355 | 8786 ft | 272 kts | 74° |
| 2026-04-16 14:21 | 4.39982 | -75.66513 | 9386 ft | 274 kts | 77° |
| 2026-04-16 14:21 | 4.40278 | -75.64595 | 9993 ft | 278 kts | 84° |
| 2026-04-16 14:22 | 4.40353 | -75.62659 | 10594 ft | 281 kts | 90° |
| 2026-04-16 14:22 | 4.40227 | -75.60701 | 11205 ft | 283 kts | 96° |
| 2026-04-16 14:22 | 4.39939 | -75.58738 | 11834 ft | 285 kts | 100° |
| 2026-04-16 14:22 | 4.39431 | -75.57397 | 11808 ft | 128 kts | 311° |
| 2026-04-16 14:23 | 4.46166 | -75.76379 | 4002 ft | 0 kts | 193° |
| 2026-04-16 14:23 | 4.46165 | -75.76379 | 4002 ft | 0 kts | 193° |
| 2026-04-16 14:24 | 4.46161 | -75.76380 | 4002 ft | 4 kts | 193° |
| 2026-04-16 14:24 | 4.46047 | -75.76407 | 4002 ft | 40 kts | 193° |
| 2026-04-16 14:24 | 4.45479 | -75.76544 | 4002 ft | 124 kts | 193° |
| 2026-04-16 14:25 | 4.44430 | -75.76796 | 4098 ft | 172 kts | 193° |
| 2026-04-16 14:25 | 4.43359 | -75.77204 | 4776 ft | 180 kts | 206° |
| 2026-04-16 14:25 | 4.42711 | -75.77839 | 4811 ft | 208 kts | 232° |
| 2026-04-16 14:25 | 4.42218 | -75.79849 | 5448 ft | 245 kts | 271° |
| 2026-04-16 14:26 | 4.42716 | -75.81513 | 5921 ft | 257 kts | 297° |
| 2026-04-16 14:26 | 4.43795 | -75.82964 | 6407 ft | 263 kts | 311° |
| 2026-04-16 14:26 | 4.45049 | -75.84299 | 6866 ft | 264 kts | 315° |
| 2026-04-16 14:26 | 4.45925 | -75.85171 | 7169 ft | 264 kts | 317° |
| 2026-04-16 14:27 | 4.47464 | -75.86134 | 7595 ft | 264 kts | 338° |
| 2026-04-16 14:27 | 4.49283 | -75.86358 | 8047 ft | 268 kts | 2° |
| 2026-04-16 14:27 | 4.51101 | -75.85872 | 8522 ft | 272 kts | 19° |
| 2026-04-16 14:27 | 4.52767 | -75.84942 | 8957 ft | 276 kts | 37° |
| 2026-04-16 14:28 | 4.53939 | -75.83422 | 9406 ft | 281 kts | 61° |
| 2026-04-16 14:28 | 4.54419 | -75.81525 | 9858 ft | 286 kts | 85° |
| 2026-04-16 14:28 | 4.54110 | -75.79554 | 10312 ft | 289 kts | 109° |
| 2026-04-16 14:28 | 4.53083 | -75.77835 | 10780 ft | 289 kts | 129° |
| 2026-04-16 14:29 | 4.51692 | -75.76324 | 11252 ft | 306 kts | 136° |
| 2026-04-16 14:29 | 4.50074 | -75.74762 | 11725 ft | 338 kts | 137° |
| 2026-04-16 14:29 | 4.48306 | -75.73057 | 12191 ft | 366 kts | 136° |
| 2026-04-16 14:29 | 4.46565 | -75.71151 | 12644 ft | 383 kts | 131° |
| 2026-04-16 14:30 | 4.44924 | -75.68969 | 13104 ft | 394 kts | 125° |
| 2026-04-16 14:30 | 4.43483 | -75.66624 | 13556 ft | 401 kts | 120° |
| 2026-04-16 14:30 | 4.42210 | -75.64115 | 14015 ft | 406 kts | 115° |
| 2026-04-16 14:30 | 4.41098 | -75.61496 | 14618 ft | 408 kts | 112° |
| 2026-04-16 14:31 | 4.40114 | -75.58794 | 15249 ft | 413 kts | 109° |
| 2026-04-16 14:31 | 4.39238 | -75.56054 | 15875 ft | 417 kts | 107° |
| 2026-04-16 14:31 | 4.38453 | -75.53252 | 16498 ft | 422 kts | 103° |
| 2026-04-16 14:31 | 4.38189 | -75.50323 | 17114 ft | 426 kts | 88° |
| 2026-04-16 14:32 | 4.38696 | -75.47389 | 17747 ft | 431 kts | 74° |
| 2026-04-16 14:32 | 4.39724 | -75.44541 | 18386 ft | 435 kts | 66° |
| 2026-04-16 14:32 | 4.41042 | -75.41783 | 19023 ft | 438 kts | 62° |
| 2026-04-16 14:32 | 4.42513 | -75.39096 | 19654 ft | 442 kts | 59° |
| 2026-04-16 14:33 | 4.44058 | -75.36459 | 20277 ft | 445 kts | 58° |
| 2026-04-16 14:33 | 4.45684 | -75.33764 | 20911 ft | 449 kts | 58° |
| 2026-04-16 14:33 | 4.47313 | -75.31090 | 21533 ft | 455 kts | 58° |
| 2026-04-16 14:33 | 4.48961 | -75.28379 | 22158 ft | 460 kts | 58° |
| 2026-04-16 14:34 | 4.50640 | -75.25594 | 22790 ft | 466 kts | 58° |
| 2026-04-16 14:34 | 4.52300 | -75.22811 | 23413 ft | 471 kts | 58° |
| 2026-04-16 14:34 | 4.53981 | -75.19962 | 24042 ft | 476 kts | 58° |
| 2026-04-16 14:34 | 4.55682 | -75.17049 | 24676 ft | 481 kts | 58° |
| 2026-04-16 14:35 | 4.57359 | -75.14155 | 25294 ft | 484 kts | 60° |
| 2026-04-16 14:35 | 4.59030 | -75.11250 | 25914 ft | 482 kts | 61° |
| 2026-04-16 14:35 | 4.60702 | -75.08322 | 26542 ft | 480 kts | 61° |
| 2026-04-16 14:35 | 4.62347 | -75.05422 | 27165 ft | 478 kts | 61° |
| 2026-04-16 14:36 | 4.63972 | -75.02541 | 27786 ft | 477 kts | 60° |
| 2026-04-16 14:36 | 4.65603 | -74.99641 | 28413 ft | 475 kts | 61° |
| 2026-04-16 14:36 | 4.67226 | -74.96752 | 29043 ft | 472 kts | 62° |
| 2026-04-16 14:36 | 4.68819 | -74.93909 | 29665 ft | 468 kts | 62° |
| 2026-04-16 14:37 | 4.70406 | -74.91073 | 30288 ft | 466 kts | 62° |
| 2026-04-16 14:37 | 4.71994 | -74.88230 | 30915 ft | 463 kts | 62° |
| 2026-04-16 14:37 | 4.73556 | -74.85429 | 31536 ft | 462 kts | 62° |
| 2026-04-16 14:37 | 4.75131 | -74.82605 | 32136 ft | 462 kts | 61° |
| 2026-04-16 14:38 | 4.76682 | -74.79789 | 32260 ft | 465 kts | 63° |
| 2026-04-16 14:38 | 4.77945 | -74.76821 | 32293 ft | 464 kts | 71° |
| 2026-04-16 14:38 | 4.79569 | -74.70583 | 32326 ft | 461 kts | 79° |
| 2026-04-16 14:39 | 4.80584 | -74.64230 | 32333 ft | 460 kts | 83° |
| 2026-04-16 14:39 | 4.81384 | -74.57857 | 32331 ft | 459 kts | 84° |
| 2026-04-16 14:40 | 4.82142 | -74.51496 | 32335 ft | 458 kts | 83° |
| 2026-04-16 14:40 | 4.82928 | -74.45139 | 32360 ft | 460 kts | 83° |
| 2026-04-16 14:41 | 4.83756 | -74.38817 | 32368 ft | 461 kts | 82° |
| 2026-04-16 14:41 | 4.85020 | -74.32356 | 32377 ft | 481 kts | 73° |
| 2026-04-16 14:42 | 4.87474 | -74.26042 | 32393 ft | 492 kts | 65° |
| 2026-04-16 14:42 | 4.90531 | -74.19831 | 32397 ft | 498 kts | 62° |
| 2026-04-16 14:43 | 4.93819 | -74.13673 | 32373 ft | 501 kts | 61° |
| 2026-04-16 14:43 | 4.97150 | -74.07529 | 32360 ft | 502 kts | 61° |
| 2026-04-16 14:44 | 5.00485 | -74.01364 | 32354 ft | 502 kts | 58° |
| 2026-04-16 14:44 | 5.02635 | -73.98620 | 32348 ft | 502 kts | 45° |
| 2026-04-16 14:44 | 5.05386 | -73.96449 | 32347 ft | 501 kts | 31° |
| 2026-04-16 14:45 | 5.08502 | -73.94942 | 32348 ft | 500 kts | 20° |
| 2026-04-16 14:45 | 5.11815 | -73.93890 | 32338 ft | 500 kts | 14° |
| 2026-04-16 14:45 | 5.18635 | -73.92519 | 32321 ft | 499 kts | 8° |
| 2026-04-16 14:46 | 5.25473 | -73.91485 | 32307 ft | 498 kts | 8° |
| 2026-04-16 14:46 | 5.32322 | -73.90404 | 32293 ft | 498 kts | 9° |
| 2026-04-16 14:47 | 5.39191 | -73.89138 | 32285 ft | 498 kts | 11° |
| 2026-04-16 14:47 | 5.45953 | -73.87693 | 32273 ft | 498 kts | 12° |
| 2026-04-16 14:48 | 5.52623 | -73.85862 | 32241 ft | 498 kts | 19° |
| 2026-04-16 14:48 | 5.58938 | -73.83039 | 32228 ft | 497 kts | 26° |
| 2026-04-16 14:49 | 5.65034 | -73.79715 | 32179 ft | 496 kts | 28° |
| 2026-04-16 14:49 | 5.70968 | -73.76244 | 32135 ft | 493 kts | 30° |
| 2026-04-16 14:50 | 5.76887 | -73.72729 | 32127 ft | 493 kts | 30° |
| 2026-04-16 14:50 | 5.82800 | -73.69245 | 32119 ft | 493 kts | 30° |
| 2026-04-16 14:51 | 5.88725 | -73.65799 | 32113 ft | 490 kts | 30° |
| 2026-04-16 14:51 | 5.94645 | -73.62401 | 32114 ft | 489 kts | 29° |
| 2026-04-16 14:53 | 6.18370 | -73.48971 | 32129 ft | 490 kts | 29° |
| 2026-04-16 14:54 | 6.24343 | -73.45588 | 32137 ft | 490 kts | 29° |
| 2026-04-16 14:54 | 6.30261 | -73.42234 | 32140 ft | 491 kts | 29° |
| 2026-04-16 14:55 | 6.36220 | -73.38854 | 32140 ft | 491 kts | 29° |
| 2026-04-16 14:55 | 6.42186 | -73.35467 | 32140 ft | 491 kts | 29° |
| 2026-04-16 14:56 | 6.48133 | -73.32089 | 32140 ft | 491 kts | 29° |
| 2026-04-16 14:56 | 6.54033 | -73.28734 | 32125 ft | 491 kts | 29° |
| 2026-04-16 14:57 | 6.60031 | -73.25326 | 31609 ft | 491 kts | 30° |
| 2026-04-16 14:57 | 6.62982 | -73.23651 | 31164 ft | 485 kts | 30° |
| 2026-04-16 14:57 | 6.65887 | -73.22002 | 30716 ft | 476 kts | 30° |
| 2026-04-16 14:58 | 6.68762 | -73.20368 | 30261 ft | 465 kts | 29° |
| 2026-04-16 14:58 | 6.74274 | -73.17235 | 29357 ft | 444 kts | 29° |
| 2026-04-16 14:58 | 6.76914 | -73.15733 | 28909 ft | 434 kts | 29° |
| 2026-04-16 14:59 | 6.78671 | -73.14733 | 28605 ft | 428 kts | 29° |
| 2026-04-16 14:59 | 6.81221 | -73.13281 | 28156 ft | 420 kts | 29° |
| 2026-04-16 14:59 | 6.83751 | -73.11840 | 27702 ft | 412 kts | 29° |
| 2026-04-16 14:59 | 6.86255 | -73.10421 | 27248 ft | 409 kts | 29° |
| 2026-04-16 15:00 | 6.89548 | -73.08585 | 26654 ft | 411 kts | 28° |
| 2026-04-16 15:00 | 6.91241 | -73.07649 | 26352 ft | 415 kts | 28° |
| 2026-04-16 15:00 | 6.93785 | -73.06248 | 25904 ft | 420 kts | 28° |
| 2026-04-16 15:00 | 6.96363 | -73.04833 | 25455 ft | 424 kts | 28° |
| 2026-04-16 15:01 | 6.98964 | -73.03407 | 25006 ft | 427 kts | 28° |
| 2026-04-16 15:01 | 7.01593 | -73.01968 | 24554 ft | 428 kts | 28° |
| 2026-04-16 15:01 | 7.04190 | -73.00546 | 24107 ft | 427 kts | 28° |
| 2026-04-16 15:01 | 7.06806 | -72.99114 | 23655 ft | 426 kts | 28° |
| 2026-04-16 15:02 | 7.09394 | -72.97697 | 23298 ft | 423 kts | 28° |
| 2026-04-16 15:02 | 7.11976 | -72.96282 | 23177 ft | 415 kts | 28° |
| 2026-04-16 15:02 | 7.14480 | -72.94909 | 23138 ft | 409 kts | 28° |
| 2026-04-16 15:02 | 7.16975 | -72.93542 | 23137 ft | 408 kts | 28° |
| 2026-04-16 15:03 | 7.19472 | -72.92173 | 23139 ft | 409 kts | 28° |
| 2026-04-16 15:03 | 7.21973 | -72.90803 | 23141 ft | 411 kts | 28° |
| 2026-04-16 15:03 | 7.24495 | -72.89421 | 23141 ft | 413 kts | 28° |
| 2026-04-16 15:03 | 7.27022 | -72.88035 | 23141 ft | 414 kts | 28° |
| 2026-04-16 15:04 | 7.29556 | -72.86645 | 23141 ft | 415 kts | 28° |
| 2026-04-16 15:04 | 7.32106 | -72.85246 | 23141 ft | 415 kts | 28° |
| 2026-04-16 15:04 | 7.34648 | -72.83852 | 23141 ft | 415 kts | 28° |
| 2026-04-16 15:04 | 7.37188 | -72.82457 | 23141 ft | 415 kts | 28° |
| 2026-04-16 15:05 | 7.39724 | -72.81065 | 23141 ft | 416 kts | 28° |
| 2026-04-16 15:05 | 7.42265 | -72.79669 | 23141 ft | 416 kts | 28° |
| 2026-04-16 15:05 | 7.44790 | -72.78282 | 23140 ft | 416 kts | 28° |
| 2026-04-16 15:05 | 7.47342 | -72.76879 | 23140 ft | 416 kts | 28° |
| 2026-04-16 15:06 | 7.49858 | -72.75494 | 23140 ft | 416 kts | 28° |
| 2026-04-16 15:06 | 7.52399 | -72.74092 | 23140 ft | 416 kts | 28° |
| 2026-04-16 15:06 | 7.54940 | -72.72688 | 23140 ft | 416 kts | 28° |
| 2026-04-16 15:06 | 7.57468 | -72.71290 | 23140 ft | 416 kts | 28° |
| 2026-04-16 15:07 | 7.60011 | -72.69881 | 23140 ft | 416 kts | 28° |
| 2026-04-16 15:07 | 7.62553 | -72.68473 | 23140 ft | 416 kts | 28° |
| 2026-04-16 15:07 | 7.65098 | -72.67063 | 23140 ft | 416 kts | 28° |
| 2026-04-16 15:07 | 7.67624 | -72.65663 | 23140 ft | 416 kts | 28° |
| 2026-04-16 15:08 | 7.70164 | -72.64254 | 23119 ft | 416 kts | 28° |
| 2026-04-16 15:08 | 7.72729 | -72.62831 | 22619 ft | 425 kts | 28° |
| 2026-04-16 15:08 | 7.75339 | -72.61382 | 22000 ft | 429 kts | 28° |
| 2026-04-16 15:08 | 7.77952 | -72.59930 | 21378 ft | 429 kts | 28° |
| 2026-04-16 15:09 | 7.80566 | -72.58477 | 20752 ft | 428 kts | 28° |
| 2026-04-16 15:09 | 7.83147 | -72.57041 | 20129 ft | 424 kts | 28° |
| 2026-04-16 15:09 | 7.85712 | -72.55564 | 19499 ft | 419 kts | 29° |
| 2026-04-16 15:09 | 7.88216 | -72.54101 | 18873 ft | 414 kts | 30° |
| 2026-04-16 15:10 | 7.90672 | -72.52658 | 18252 ft | 409 kts | 30° |
| 2026-04-16 15:10 | 7.93114 | -72.51218 | 17626 ft | 404 kts | 30° |
| 2026-04-16 15:10 | 7.95531 | -72.49790 | 16999 ft | 400 kts | 30° |
| 2026-04-16 15:10 | 7.97938 | -72.48367 | 16368 ft | 395 kts | 29° |
| 2026-04-16 15:11 | 8.00435 | -72.47270 | 15729 ft | 390 kts | 15° |
| 2026-04-16 15:11 | 8.03092 | -72.46878 | 15112 ft | 385 kts | 2° |
| 2026-04-16 15:11 | 8.05749 | -72.46965 | 14493 ft | 381 kts | 354° |
| 2026-04-16 15:11 | 8.08373 | -72.47351 | 13868 ft | 377 kts | 349° |
| 2026-04-16 15:12 | 8.10929 | -72.47861 | 13244 ft | 373 kts | 347° |
| 2026-04-16 15:12 | 8.13341 | -72.48703 | 12608 ft | 368 kts | 332° |
| 2026-04-16 15:12 | 8.15365 | -72.50239 | 11981 ft | 363 kts | 314° |
| 2026-04-16 15:12 | 8.15998 | -72.50991 | 11740 ft | 361 kts | 307° |
| 2026-04-16 15:27 | 8.16361 | -72.51509 | 11590 ft | 360 kts | 304° |
| 2026-04-16 15:27 | 8.17752 | -72.53580 | 10980 ft | 357 kts | 304° |
| 2026-04-16 15:27 | 8.19203 | -72.55591 | 10357 ft | 354 kts | 306° |
| 2026-04-16 15:27 | 8.20675 | -72.57562 | 9734 ft | 352 kts | 306° |
| 2026-04-16 15:28 | 8.21132 | -72.58168 | 9541 ft | 351 kts | 307° |
| 2026-04-16 15:30 | 8.21219 | -72.58284 | 9504 ft | 351 kts | 307° |
| 2026-04-16 15:30 | 8.22676 | -72.60215 | 8886 ft | 348 kts | 307° |
| 2026-04-16 15:31 | 8.23721 | -72.61473 | 8450 ft | 347 kts | 314° |
| 2026-04-16 15:31 | 8.25688 | -72.62870 | 7816 ft | 344 kts | 333° |
| 2026-04-16 15:31 | 8.27960 | -72.63515 | 7228 ft | 335 kts | 353° |
| 2026-04-16 15:31 | 8.30170 | -72.63353 | 6661 ft | 312 kts | 13° |
| 2026-04-16 15:32 | 8.32077 | -72.62441 | 6030 ft | 296 kts | 34° |
| 2026-04-16 15:32 | 8.33424 | -72.60935 | 5399 ft | 283 kts | 58° |
| 2026-04-16 15:32 | 8.34030 | -72.59112 | 4780 ft | 272 kts | 81° |
| 2026-04-16 15:32 | 8.33842 | -72.57254 | 4156 ft | 266 kts | 105° |
| 2026-04-16 15:33 | 8.32903 | -72.55668 | 3525 ft | 260 kts | 131° |
| 2026-04-16 15:33 | 8.31490 | -72.54622 | 3180 ft | 244 kts | 150° |
| 2026-04-16 15:33 | 8.29993 | -72.54023 | 3140 ft | 219 kts | 165° |
| 2026-04-16 15:33 | 8.28582 | -72.53809 | 3133 ft | 197 kts | 175° |
| 2026-04-16 15:34 | 8.27279 | -72.53847 | 3130 ft | 181 kts | 183° |
| 2026-04-16 15:34 | 8.26061 | -72.53951 | 3149 ft | 171 kts | 185° |
| 2026-04-16 15:34 | 8.24885 | -72.54040 | 3142 ft | 169 kts | 185° |
| 2026-04-16 15:34 | 8.23706 | -72.54125 | 3140 ft | 167 kts | 185° |
| 2026-04-16 15:35 | 8.22552 | -72.54210 | 3136 ft | 167 kts | 185° |
| 2026-04-16 15:35 | 8.21379 | -72.54300 | 3140 ft | 168 kts | 185° |
| 2026-04-16 15:35 | 8.20212 | -72.54395 | 3143 ft | 170 kts | 184° |
| 2026-04-16 15:35 | 8.19036 | -72.54504 | 3145 ft | 170 kts | 185° |
| 2026-04-16 15:36 | 8.17862 | -72.54618 | 3142 ft | 169 kts | 185° |
| 2026-04-16 15:36 | 8.16692 | -72.54722 | 3140 ft | 168 kts | 185° |
| 2026-04-16 15:36 | 8.15523 | -72.54820 | 3141 ft | 167 kts | 185° |
| 2026-04-16 15:36 | 8.14371 | -72.54914 | 3140 ft | 167 kts | 185° |
| 2026-04-16 15:37 | 8.13211 | -72.55008 | 3140 ft | 166 kts | 185° |
| 2026-04-16 15:37 | 8.12049 | -72.55144 | 3135 ft | 167 kts | 189° |
| 2026-04-16 15:37 | 8.10937 | -72.55455 | 3139 ft | 168 kts | 197° |
| 2026-04-16 15:37 | 8.09848 | -72.55878 | 3144 ft | 170 kts | 201° |
| 2026-04-16 15:38 | 8.08726 | -72.56317 | 3141 ft | 171 kts | 201° |
| 2026-04-16 15:38 | 8.07619 | -72.56740 | 3141 ft | 172 kts | 201° |
| 2026-04-16 15:38 | 8.06499 | -72.57164 | 3141 ft | 172 kts | 201° |
| 2026-04-16 15:38 | 8.05377 | -72.57586 | 3141 ft | 172 kts | 200° |
| 2026-04-16 15:39 | 8.04188 | -72.57749 | 3130 ft | 173 kts | 180° |
| 2026-04-16 15:39 | 8.03022 | -72.57434 | 3147 ft | 174 kts | 158° |
| 2026-04-16 15:39 | 8.01972 | -72.56829 | 3159 ft | 176 kts | 147° |
| 2026-04-16 15:39 | 8.00904 | -72.56157 | 2985 ft | 184 kts | 147° |
| 2026-04-16 15:40 | 7.99826 | -72.55499 | 2675 ft | 177 kts | 148° |
| 2026-04-16 15:40 | 7.98791 | -72.54865 | 2402 ft | 171 kts | 148° |
| 2026-04-16 15:40 | 7.97816 | -72.54263 | 2169 ft | 156 kts | 148° |
| 2026-04-16 15:40 | 7.96904 | -72.53706 | 1914 ft | 149 kts | 148° |
| 2026-04-16 15:41 | 7.96042 | -72.53180 | 1695 ft | 143 kts | 148° |
| 2026-04-16 15:41 | 7.95211 | -72.52667 | 1475 ft | 138 kts | 148° |
| 2026-04-16 15:41 | 7.94398 | -72.52171 | 1267 ft | 135 kts | 149° |
| 2026-04-16 15:41 | 7.93619 | -72.51701 | 1122 ft | 117 kts | 149° |
| 2026-04-16 15:42 | 7.93055 | -72.51364 | 1110 ft | 63 kts | 149° |
| 2026-04-16 15:42 | 7.92931 | -72.51290 | 1110 ft | 2 kts | 149° |
| 2026-04-16 15:42 | 7.92878 | -72.51258 | 1110 ft | 19 kts | 149° |
| 2026-04-16 15:42 | 7.92771 | -72.51182 | 1110 ft | 19 kts | 144° |
| 2026-04-16 15:43 | 7.92659 | -72.51109 | 1110 ft | 19 kts | 152° |
| 2026-04-16 15:43 | 7.92638 | -72.51044 | 1110 ft | 10 kts | 4° |
| 2026-04-16 15:43 | 7.92673 | -72.51053 | 1110 ft | 9 kts | 4° |
| 2026-04-16 15:43 | 7.92773 | -72.50990 | 1110 ft | 19 kts | 44° |
| 2026-04-16 15:44 | 7.92870 | -72.50907 | 1110 ft | 18 kts | 29° |
| 2026-04-16 15:44 | 7.92861 | -72.50848 | 1110 ft | 7 kts | 171° |
| 2026-04-16 15:44 | 7.92819 | -72.50869 | 1110 ft | 2 kts | 211° |
| 2026-04-16 15:44 | 7.92813 | -72.50872 | 1110 ft | 0 kts | 202° |